Humidity-temperature Sensor

Selected Measurement Type: Air Temperature

 
Air Temperature [°C]     6 entries per hour
Showing data from 9/26/2023 (00:00:00 Z) to 9/23/2023 (00:01:00 Z)
Previous Next [ Day | 3-Days | 7-Days ]
First Last
Prev [ Day | 3-Days | 7-Days ] Next
First Last

Start Time:     :
End Time:     :     
Time (in GMT) :00 :50 :40 :30 :20 :10
Previous Next [ Day | 3-Days | 7-Days ]
First Last
Prev [ Day | 3-Days | 7-Days ] Next
First Last


123 => good data
MM => data is determined as missing
-- => data not received/configured
Back to Top Back to Top
9/26/2023 00:00 to 23:10 28.47 28.46 28.62 28.59 28.52 28.54
9/25/2023 23:00 to 22:10 28.35 28.41 28.47 28.42 28.52 28.38
9/25/2023 22:00 to 21:10 28.50 28.26 28.17 28.29 28.46 28.51
9/25/2023 21:00 to 20:10 28.53 28.27 28.37 28.42 28.47 28.39
9/25/2023 20:00 to 19:10 28.48 27.79 28.09 27.90 27.61 27.54
9/25/2023 19:00 to 18:10 27.61 27.52 27.49 27.24 27.37 27.38
9/25/2023 18:00 to 17:10 27.23 27.17 27.10 26.75 26.88 26.77
9/25/2023 17:00 to 16:10 26.73 26.35 25.97 25.56 25.46 25.37
9/25/2023 16:00 to 15:10 25.36 25.35 25.56 25.56 25.55 25.88
9/25/2023 15:00 to 14:10 26.05 26.03 25.58 26.30 26.66 26.14
9/25/2023 14:00 to 13:10 26.88 27.92 28.30 28.19 28.18 28.07
9/25/2023 13:00 to 12:10 28.12 27.96 27.96 28.07 27.94 27.91
9/25/2023 12:00 to 11:10 27.80 27.78 27.71 27.53 27.36 27.34
9/25/2023 11:00 to 10:10 27.21 27.08 26.89 26.82 27.00 27.26
9/25/2023 10:00 to 9:10 27.33 28.30 28.38 28.40 28.50 28.44
9/25/2023 09:00 to 8:10 28.59 28.41 28.47 28.59 28.47 28.60
9/25/2023 08:00 to 7:10 28.54 28.49 28.35 28.27 28.26 28.34
9/25/2023 07:00 to 6:10 28.26 28.12 28.15 28.23 28.26 28.17
9/25/2023 06:00 to 5:10 28.15 28.14 28.13 28.10 28.06 28.08
9/25/2023 05:00 to 4:10 28.03 28.06 28.26 28.32 28.36 28.57
9/25/2023 04:00 to 3:10 28.48 28.03 27.73 27.72 27.69 27.85
9/25/2023 03:00 to 2:10 27.67 27.61 27.60 27.45 27.88 28.23
9/25/2023 02:00 to 1:10 28.21 28.12 28.26 28.25 28.08 27.95
9/25/2023 01:00 to 0:10 27.96 27.93 27.78 28.12 28.90 29.02
9/25/2023 00:00 to 23:10 29.33 29.27 29.08 29.21 29.06 29.06
9/24/2023 23:00 to 22:10 29.12 29.12 29.10 28.97 29.03 28.96
9/24/2023 22:00 to 21:10 28.91 29.09 28.96 28.99 28.89 28.94
9/24/2023 21:00 to 20:10 28.89 28.89 28.88 28.79 28.83 28.84
9/24/2023 20:00 to 19:10 28.74 28.76 28.71 28.66 28.66 28.66
9/24/2023 19:00 to 18:10 28.51 28.62 28.54 28.53 28.32 28.33
9/24/2023 18:00 to 17:10 28.31 28.24 28.11 28.11 28.03 27.98
9/24/2023 17:00 to 16:10 27.95 27.86 27.88 27.81 27.77 27.78
9/24/2023 16:00 to 15:10 27.68 27.24 26.93 26.79 27.05 27.13
9/24/2023 15:00 to 14:10 27.04 26.99 27.09 27.27 27.24 27.04
9/24/2023 14:00 to 13:10 27.39 27.54 27.37 27.38 27.16 27.52
9/24/2023 13:00 to 12:10 27.56 27.82 27.37 27.46 27.36 27.87
9/24/2023 12:00 to 11:10 28.64 28.68 28.70 28.69 28.56 28.66
9/24/2023 11:00 to 10:10 28.68 28.65 28.63 28.60 28.44 28.33
9/24/2023 10:00 to 9:10 28.19 28.25 28.19 28.40 28.67 28.46
9/24/2023 09:00 to 8:10 28.94 29.00 28.98 28.96 28.89 28.91
9/24/2023 08:00 to 7:10 28.83 28.85 28.73 28.77 28.85 28.69
9/24/2023 07:00 to 6:10 28.63 28.62 28.56 28.68 28.55 28.43
9/24/2023 06:00 to 5:10 28.48 28.48 28.64 28.43 28.28 27.78
9/24/2023 05:00 to 4:10 27.87 27.62 27.16 26.92 26.89 26.74
9/24/2023 04:00 to 3:10 27.07 27.00 27.00 26.93 26.75 26.86
9/24/2023 03:00 to 2:10 27.12 27.03 27.43 27.63 28.31 28.37
9/24/2023 02:00 to 1:10 27.89 27.42 27.95 28.48 28.42 27.91
9/24/2023 01:00 to 0:10 28.02 27.89 27.77 27.65 27.67 27.53
9/24/2023 00:00 to 23:10 27.38 27.46 27.45 27.34 27.69 28.78
9/23/2023 23:00 to 22:10 28.67 28.66 28.62 28.59 28.60 28.44
9/23/2023 22:00 to 21:10 28.16 27.77 27.61 27.26 26.76 27.00
9/23/2023 21:00 to 20:10 28.44 28.27 28.04 28.04 28.41 28.23
9/23/2023 20:00 to 19:10 28.16 28.48 28.64 28.65 28.43 28.37
9/23/2023 19:00 to 18:10 28.16 28.91 28.81 28.88 28.79 28.96
9/23/2023 18:00 to 17:10 28.84 28.83 28.70 28.54 28.48 28.53
9/23/2023 17:00 to 16:10 28.55 28.68 28.53 28.60 28.64 28.55
9/23/2023 16:00 to 15:10 28.47 28.52 28.58 28.61 28.59 28.61
9/23/2023 15:00 to 14:10 28.56 28.63 28.43 28.49 28.37 28.42
9/23/2023 14:00 to 13:10 28.40 28.59 28.56 28.58 28.49 28.60
9/23/2023 13:00 to 12:10 28.57 28.64 28.61 28.70 28.64 28.64
9/23/2023 12:00 to 11:10 28.67 28.70 28.55 28.65 28.74 28.70
9/23/2023 11:00 to 10:10 28.74 28.77 28.77 28.81 28.82 28.92
9/23/2023 10:00 to 9:10 28.81 28.90 28.89 28.77 28.68 28.89
9/23/2023 09:00 to 8:10 28.85 28.86 28.89 28.91 28.90 28.84
9/23/2023 08:00 to 7:10 28.93 28.85 28.89 28.94 28.81 28.87
9/23/2023 07:00 to 6:10 28.87 28.77 28.78 28.78 28.74 28.70
9/23/2023 06:00 to 5:10 28.97 28.89 28.92 28.86 28.94 28.85
9/23/2023 05:00 to 4:10 28.84 28.89 28.93 28.99 29.03 29.01
9/23/2023 04:00 to 3:10 28.97 28.90 28.87 28.51 28.59 28.52
9/23/2023 03:00 to 2:10 28.43 28.41 28.41 28.22 28.25 28.18
9/23/2023 02:00 to 1:10 28.10 27.99 28.10 27.95 28.19 28.27
9/23/2023 01:00 to 0:10 28.33 27.70 28.11 28.54 28.73 28.60